logo
Search for airport 
image banner adimage banner adimage banner ad
image banner ad

FAMNTU - Montusi Mountain Lodge

Located in , South Africa

ICAO - , IATA -

Data provided by Airmate  

General information

Coordinates: S28°37'44" E29°1'46"
Elevation is 4337 feet MSL.
 
View others Airports in Kwazulu-Natal

Operational data

Special qualification required
Current time UTC:
Current local time:
Weather at : - ( 0 km )
METAR: LWSK 180020Z VRB02KT CAVOK 12/11 Q1016 NOSIG
View NOTAMs / SUP AIP / TFR affecting this airport [VIEW]
Communications frequencies: [VIEW]

Runways:

RWY identifierQFULength (ft)Width (ft)SurfaceLDA (ft)
02134°324866SAND
20314°324866SAND

Airport contact information

Address: South Africa

Satellite view of FAMNTU